Estación Meteorológica Peña el Pijo (Robertgarden) [ 09/23/18 02:41:59 CEST ]

Fecha Hora Presion(HPa) Temp (°C) Humedad % Rocio (°C) Viento ( m/s) Direccion Lluvia 1Hora(mm) Lluvia 24H(mm) LLuvia Total(mm)
2018-Jul-21 01:01:53 1010.000 15.5 45 3.5         269.36
2018-Jul-21 02:01:42 1009.800 14.5 49 3.9         269.36
2018-Jul-21 03:01:34 1009.600 13.2 53 3.8         269.36
2018-Jul-21 04:01:32 1009.300 12.7 56 4.1         269.36
2018-Jul-21 05:01:33 1009.500 12.4 58 4.3         269.36
2018-Jul-21 06:01:38 1009.500 12.2 58 4.2         269.36
2018-Jul-21 07:01:51 1009.700 11.8 60 4.3         269.36
2018-Jul-21 08:02:04 1010.000 13.6 62 6.4         269.36
2018-Jul-21 09:02:10 1009.800 19.4 49 8.4         269.36
2018-Jul-21 10:01:51 1010.000 25.9 38 10.4         269.36
2018-Jul-21 11:01:50 1009.800 28.8 30 9.5 0.5 NW     269.36
2018-Jul-21 12:01:50 1009.700 30.8 26 8.9         269.36
2018-Jul-21 13:01:45 1009.600 32.3 24 8.9         269.36
2018-Jul-21 14:02:03 1009.000 32.9 23 8.8         269.36
2018-Jul-21 15:01:44 1008.200 33.1 21 7.8         269.36
2018-Jul-21 16:01:39 1007.700 35.9 18 7.5         269.36
2018-Jul-21 17:01:48 1007.200 35.2 18 6.9         269.36
2018-Jul-21 18:02:00 1007.200 34.4 14 2.3         269.36
2018-Jul-21 19:01:54 1007.300 32.1 15 1.5         269.36
2018-Jul-21 20:01:44 1007.400 30.1 19 3.7         269.36
2018-Jul-21 21:01:49 1007.700 26.5 25 4.6         269.36
2018-Jul-21 22:01:40 1008.500 23.2 32 5.5         269.36
2018-Jul-21 23:01:41 1009.200 18.9 40 5.0         269.36

Temperatura Máxima:35°    Temperatura Mínima:11°
Presión Máxima:1010.000 Hpa    Presión Mínima:1007.200 Hpa


Volver